sensor_id;sensor_type;location;lat;lon;timestamp;P1;durP1;ratioP1;P2;durP2;ratioP2
22543;SDS011;11438;52.044;8.716;2022-12-18T00:01:18;13.87;;;8.07;;
22543;SDS011;11438;52.044;8.716;2022-12-18T00:03:48;11.23;;;7.30;;
22543;SDS011;11438;52.044;8.716;2022-12-18T00:06:15;13.23;;;7.23;;
22543;SDS011;11438;52.044;8.716;2022-12-18T00:08:41;14.43;;;7.77;;
22543;SDS011;11438;52.044;8.716;2022-12-18T00:11:10;12.07;;;7.47;;
22543;SDS011;11438;52.044;8.716;2022-12-18T00:13:37;15.47;;;7.93;;
22543;SDS011;11438;52.044;8.716;2022-12-18T00:16:03;12.70;;;7.47;;
22543;SDS011;11438;52.044;8.716;2022-12-18T00:18:32;11.77;;;6.67;;
22543;SDS011;11438;52.044;8.716;2022-12-18T00:21:01;10.87;;;6.93;;
22543;SDS011;11438;52.044;8.716;2022-12-18T00:23:28;11.97;;;6.90;;
22543;SDS011;11438;52.044;8.716;2022-12-18T00:25:58;11.90;;;6.90;;
22543;SDS011;11438;52.044;8.716;2022-12-18T00:28:28;11.43;;;6.97;;
22543;SDS011;11438;52.044;8.716;2022-12-18T00:31:03;11.73;;;7.00;;
22543;SDS011;11438;52.044;8.716;2022-12-18T00:33:30;12.57;;;7.10;;
22543;SDS011;11438;52.044;8.716;2022-12-18T00:36:03;11.03;;;7.00;;
22543;SDS011;11438;52.044;8.716;2022-12-18T00:38:30;10.80;;;6.57;;
22543;SDS011;11438;52.044;8.716;2022-12-18T00:40:56;12.50;;;7.37;;
22543;SDS011;11438;52.044;8.716;2022-12-18T00:43:21;11.53;;;6.87;;
22543;SDS011;11438;52.044;8.716;2022-12-18T00:45:47;14.20;;;7.93;;
22543;SDS011;11438;52.044;8.716;2022-12-18T00:48:12;14.53;;;7.17;;
22543;SDS011;11438;52.044;8.716;2022-12-18T00:50:38;12.80;;;6.83;;
22543;SDS011;11438;52.044;8.716;2022-12-18T00:53:04;11.40;;;6.23;;
22543;SDS011;11438;52.044;8.716;2022-12-18T00:55:29;12.73;;;6.80;;
22543;SDS011;11438;52.044;8.716;2022-12-18T00:57:55;13.33;;;6.77;;
22543;SDS011;11438;52.044;8.716;2022-12-18T01:00:20;13.27;;;7.00;;
22543;SDS011;11438;52.044;8.716;2022-12-18T01:02:47;12.60;;;6.80;;
22543;SDS011;11438;52.044;8.716;2022-12-18T01:05:13;13.40;;;6.97;;
22543;SDS011;11438;52.044;8.716;2022-12-18T01:07:39;13.87;;;7.03;;
22543;SDS011;11438;52.044;8.716;2022-12-18T01:10:05;11.53;;;6.73;;
22543;SDS011;11438;52.044;8.716;2022-12-18T01:12:32;13.37;;;7.37;;
22543;SDS011;11438;52.044;8.716;2022-12-18T01:14:58;12.67;;;6.67;;
22543;SDS011;11438;52.044;8.716;2022-12-18T01:17:23;13.23;;;7.33;;
22543;SDS011;11438;52.044;8.716;2022-12-18T01:19:49;13.53;;;6.93;;
22543;SDS011;11438;52.044;8.716;2022-12-18T01:22:15;12.40;;;6.90;;
22543;SDS011;11438;52.044;8.716;2022-12-18T01:24:40;13.90;;;7.23;;
22543;SDS011;11438;52.044;8.716;2022-12-18T01:27:06;11.53;;;6.57;;
22543;SDS011;11438;52.044;8.716;2022-12-18T01:29:31;12.13;;;6.40;;
22543;SDS011;11438;52.044;8.716;2022-12-18T01:31:57;11.17;;;6.40;;
22543;SDS011;11438;52.044;8.716;2022-12-18T01:34:23;10.93;;;6.43;;
22543;SDS011;11438;52.044;8.716;2022-12-18T01:36:49;12.03;;;7.20;;
22543;SDS011;11438;52.044;8.716;2022-12-18T01:39:17;11.97;;;7.00;;
22543;SDS011;11438;52.044;8.716;2022-12-18T01:41:43;11.40;;;6.90;;
22543;SDS011;11438;52.044;8.716;2022-12-18T01:44:56;9.50;;;6.33;;
22543;SDS011;11438;52.044;8.716;2022-12-18T01:50:04;12.70;;;6.77;;
22543;SDS011;11438;52.044;8.716;2022-12-18T01:52:36;11.93;;;6.40;;
22543;SDS011;11438;52.044;8.716;2022-12-18T01:55:03;12.17;;;7.07;;
22543;SDS011;11438;52.044;8.716;2022-12-18T01:57:31;10.40;;;6.23;;
22543;SDS011;11438;52.044;8.716;2022-12-18T01:59:59;11.40;;;6.83;;
22543;SDS011;11438;52.044;8.716;2022-12-18T02:02:27;12.70;;;6.90;;
22543;SDS011;11438;52.044;8.716;2022-12-18T02:04:54;11.50;;;6.53;;
22543;SDS011;11438;52.044;8.716;2022-12-18T02:07:23;12.43;;;6.67;;
22543;SDS011;11438;52.044;8.716;2022-12-18T02:15:25;12.27;;;6.03;;
22543;SDS011;11438;52.044;8.716;2022-12-18T02:18:21;12.53;;;6.93;;
22543;SDS011;11438;52.044;8.716;2022-12-18T02:20:49;13.07;;;6.27;;
22543;SDS011;11438;52.044;8.716;2022-12-18T02:29:01;12.77;;;6.10;;
22543;SDS011;11438;52.044;8.716;2022-12-18T02:31:34;10.07;;;5.83;;
22543;SDS011;11438;52.044;8.716;2022-12-18T02:34:04;8.57;;;5.27;;
22543;SDS011;11438;52.044;8.716;2022-12-18T02:36:32;9.87;;;6.37;;
22543;SDS011;11438;52.044;8.716;2022-12-18T02:39:01;12.10;;;6.83;;
22543;SDS011;11438;52.044;8.716;2022-12-18T02:41:28;11.47;;;6.43;;
22543;SDS011;11438;52.044;8.716;2022-12-18T02:43:56;11.57;;;5.77;;
22543;SDS011;11438;52.044;8.716;2022-12-18T02:57:56;12.70;;;7.00;;
22543;SDS011;11438;52.044;8.716;2022-12-18T03:01:01;10.23;;;6.30;;
22543;SDS011;11438;52.044;8.716;2022-12-18T03:03:55;13.37;;;6.00;;
22543;SDS011;11438;52.044;8.716;2022-12-18T03:06:28;11.07;;;6.37;;
22543;SDS011;11438;52.044;8.716;2022-12-18T03:09:07;9.83;;;6.00;;
22543;SDS011;11438;52.044;8.716;2022-12-18T03:11:40;12.07;;;6.77;;
22543;SDS011;11438;52.044;8.716;2022-12-18T03:14:29;10.80;;;6.17;;
22543;SDS011;11438;52.044;8.716;2022-12-18T03:16:58;10.33;;;5.93;;
22543;SDS011;11438;52.044;8.716;2022-12-18T03:19:27;13.87;;;7.17;;
22543;SDS011;11438;52.044;8.716;2022-12-18T03:21:57;10.03;;;6.20;;
22543;SDS011;11438;52.044;8.716;2022-12-18T03:24:25;11.97;;;5.90;;
22543;SDS011;11438;52.044;8.716;2022-12-18T03:27:00;9.00;;;5.80;;
22543;SDS011;11438;52.044;8.716;2022-12-18T03:29:34;10.00;;;6.07;;
22543;SDS011;11438;52.044;8.716;2022-12-18T03:32:10;12.20;;;6.70;;
22543;SDS011;11438;52.044;8.716;2022-12-18T03:34:40;12.77;;;6.70;;
22543;SDS011;11438;52.044;8.716;2022-12-18T03:37:09;12.57;;;7.27;;
22543;SDS011;11438;52.044;8.716;2022-12-18T03:39:34;10.47;;;6.20;;
22543;SDS011;11438;52.044;8.716;2022-12-18T03:50:13;8.97;;;5.57;;
22543;SDS011;11438;52.044;8.716;2022-12-18T03:52:54;11.20;;;6.30;;
22543;SDS011;11438;52.044;8.716;2022-12-18T03:55:30;9.23;;;6.13;;
22543;SDS011;11438;52.044;8.716;2022-12-18T03:57:59;10.53;;;6.43;;
22543;SDS011;11438;52.044;8.716;2022-12-18T04:00:27;10.87;;;6.27;;
22543;SDS011;11438;52.044;8.716;2022-12-18T04:02:54;10.20;;;6.03;;
22543;SDS011;11438;52.044;8.716;2022-12-18T04:05:21;10.60;;;6.50;;
22543;SDS011;11438;52.044;8.716;2022-12-18T04:07:49;10.90;;;6.17;;
22543;SDS011;11438;52.044;8.716;2022-12-18T04:10:16;12.50;;;7.00;;
22543;SDS011;11438;52.044;8.716;2022-12-18T04:12:43;12.37;;;6.23;;
22543;SDS011;11438;52.044;8.716;2022-12-18T04:15:09;13.63;;;6.73;;
22543;SDS011;11438;52.044;8.716;2022-12-18T04:17:35;12.37;;;6.10;;
22543;SDS011;11438;52.044;8.716;2022-12-18T04:20:01;13.20;;;7.53;;
22543;SDS011;11438;52.044;8.716;2022-12-18T04:22:27;9.57;;;5.73;;
22543;SDS011;11438;52.044;8.716;2022-12-18T04:24:53;12.20;;;6.90;;
22543;SDS011;11438;52.044;8.716;2022-12-18T04:27:18;10.10;;;6.50;;
22543;SDS011;11438;52.044;8.716;2022-12-18T04:29:44;12.40;;;6.10;;
22543;SDS011;11438;52.044;8.716;2022-12-18T04:32:09;10.33;;;5.70;;
22543;SDS011;11438;52.044;8.716;2022-12-18T04:34:35;11.30;;;6.47;;
22543;SDS011;11438;52.044;8.716;2022-12-18T04:37:01;12.07;;;6.47;;
22543;SDS011;11438;52.044;8.716;2022-12-18T04:39:26;11.63;;;6.37;;
22543;SDS011;11438;52.044;8.716;2022-12-18T04:41:52;10.83;;;6.33;;
22543;SDS011;11438;52.044;8.716;2022-12-18T04:44:17;11.67;;;6.47;;
22543;SDS011;11438;52.044;8.716;2022-12-18T04:46:43;11.90;;;6.40;;
22543;SDS011;11438;52.044;8.716;2022-12-18T04:49:09;12.60;;;6.60;;
22543;SDS011;11438;52.044;8.716;2022-12-18T04:51:35;11.87;;;6.17;;
22543;SDS011;11438;52.044;8.716;2022-12-18T04:54:02;11.33;;;5.87;;
22543;SDS011;11438;52.044;8.716;2022-12-18T04:56:27;11.77;;;6.40;;
22543;SDS011;11438;52.044;8.716;2022-12-18T04:58:53;10.80;;;6.10;;
22543;SDS011;11438;52.044;8.716;2022-12-18T05:01:19;14.13;;;6.10;;
22543;SDS011;11438;52.044;8.716;2022-12-18T05:03:44;17.83;;;7.53;;
22543;SDS011;11438;52.044;8.716;2022-12-18T05:06:10;10.77;;;5.80;;
22543;SDS011;11438;52.044;8.716;2022-12-18T05:08:35;11.93;;;6.57;;
22543;SDS011;11438;52.044;8.716;2022-12-18T05:11:05;9.40;;;5.90;;
22543;SDS011;11438;52.044;8.716;2022-12-18T05:13:36;8.43;;;6.13;;
22543;SDS011;11438;52.044;8.716;2022-12-18T05:16:03;10.87;;;6.13;;
22543;SDS011;11438;52.044;8.716;2022-12-18T05:18:29;13.33;;;7.33;;
22543;SDS011;11438;52.044;8.716;2022-12-18T05:20:55;12.33;;;6.03;;
22543;SDS011;11438;52.044;8.716;2022-12-18T05:23:22;11.73;;;6.70;;
22543;SDS011;11438;52.044;8.716;2022-12-18T05:25:52;11.43;;;6.20;;
22543;SDS011;11438;52.044;8.716;2022-12-18T05:28:19;10.10;;;6.53;;
22543;SDS011;11438;52.044;8.716;2022-12-18T05:30:52;10.70;;;6.27;;
22543;SDS011;11438;52.044;8.716;2022-12-18T05:33:23;9.60;;;6.10;;
22543;SDS011;11438;52.044;8.716;2022-12-18T05:35:53;10.13;;;6.63;;
22543;SDS011;11438;52.044;8.716;2022-12-18T05:38:21;13.17;;;6.90;;
22543;SDS011;11438;52.044;8.716;2022-12-18T05:40:48;12.10;;;6.30;;
22543;SDS011;11438;52.044;8.716;2022-12-18T05:43:15;11.37;;;6.53;;
22543;SDS011;11438;52.044;8.716;2022-12-18T05:45:40;11.50;;;6.60;;
22543;SDS011;11438;52.044;8.716;2022-12-18T05:48:06;11.10;;;6.53;;
22543;SDS011;11438;52.044;8.716;2022-12-18T05:50:36;13.00;;;6.97;;
22543;SDS011;11438;52.044;8.716;2022-12-18T05:53:03;13.30;;;7.47;;
22543;SDS011;11438;52.044;8.716;2022-12-18T05:55:29;12.83;;;7.37;;
22543;SDS011;11438;52.044;8.716;2022-12-18T05:57:59;11.20;;;6.87;;
22543;SDS011;11438;52.044;8.716;2022-12-18T06:00:25;13.47;;;7.60;;
22543;SDS011;11438;52.044;8.716;2022-12-18T06:02:50;11.20;;;6.40;;
22543;SDS011;11438;52.044;8.716;2022-12-18T06:05:16;15.43;;;7.37;;
22543;SDS011;11438;52.044;8.716;2022-12-18T06:07:41;13.23;;;7.53;;
22543;SDS011;11438;52.044;8.716;2022-12-18T06:10:07;12.33;;;7.10;;
22543;SDS011;11438;52.044;8.716;2022-12-18T06:12:32;13.37;;;7.33;;
22543;SDS011;11438;52.044;8.716;2022-12-18T06:14:58;12.93;;;7.00;;
22543;SDS011;11438;52.044;8.716;2022-12-18T06:17:31;12.63;;;6.23;;
22543;SDS011;11438;52.044;8.716;2022-12-18T06:19:57;11.37;;;6.77;;
22543;SDS011;11438;52.044;8.716;2022-12-18T06:22:23;11.90;;;7.00;;
22543;SDS011;11438;52.044;8.716;2022-12-18T06:24:49;13.00;;;6.30;;
22543;SDS011;11438;52.044;8.716;2022-12-18T06:27:14;12.63;;;7.43;;
22543;SDS011;11438;52.044;8.716;2022-12-18T06:29:40;10.87;;;6.10;;
22543;SDS011;11438;52.044;8.716;2022-12-18T06:32:06;8.73;;;5.70;;
22543;SDS011;11438;52.044;8.716;2022-12-18T06:34:32;11.20;;;6.13;;
22543;SDS011;11438;52.044;8.716;2022-12-18T06:36:58;8.63;;;5.53;;
22543;SDS011;11438;52.044;8.716;2022-12-18T06:39:24;10.87;;;6.17;;
22543;SDS011;11438;52.044;8.716;2022-12-18T06:41:51;10.90;;;6.77;;
22543;SDS011;11438;52.044;8.716;2022-12-18T06:44:17;18.07;;;8.63;;
22543;SDS011;11438;52.044;8.716;2022-12-18T06:46:43;14.77;;;8.20;;
22543;SDS011;11438;52.044;8.716;2022-12-18T06:49:08;14.03;;;7.87;;
22543;SDS011;11438;52.044;8.716;2022-12-18T06:51:34;13.90;;;7.83;;
22543;SDS011;11438;52.044;8.716;2022-12-18T06:54:00;13.70;;;7.23;;
22543;SDS011;11438;52.044;8.716;2022-12-18T06:56:26;12.10;;;6.60;;
22543;SDS011;11438;52.044;8.716;2022-12-18T06:58:51;10.57;;;6.77;;
22543;SDS011;11438;52.044;8.716;2022-12-18T07:01:17;12.60;;;7.60;;
22543;SDS011;11438;52.044;8.716;2022-12-18T07:03:43;11.80;;;6.57;;
22543;SDS011;11438;52.044;8.716;2022-12-18T07:06:15;13.83;;;7.40;;
22543;SDS011;11438;52.044;8.716;2022-12-18T07:08:43;10.63;;;6.27;;
22543;SDS011;11438;52.044;8.716;2022-12-18T07:11:09;13.23;;;7.17;;
22543;SDS011;11438;52.044;8.716;2022-12-18T07:13:35;14.07;;;7.73;;
22543;SDS011;11438;52.044;8.716;2022-12-18T07:16:08;12.73;;;7.53;;
22543;SDS011;11438;52.044;8.716;2022-12-18T07:18:35;12.67;;;6.73;;
22543;SDS011;11438;52.044;8.716;2022-12-18T07:21:04;13.80;;;7.47;;
22543;SDS011;11438;52.044;8.716;2022-12-18T07:23:31;15.53;;;9.50;;
22543;SDS011;11438;52.044;8.716;2022-12-18T07:26:09;17.37;;;9.47;;
22543;SDS011;11438;52.044;8.716;2022-12-18T07:28:36;14.83;;;8.50;;
22543;SDS011;11438;52.044;8.716;2022-12-18T07:31:04;14.37;;;8.10;;
22543;SDS011;11438;52.044;8.716;2022-12-18T07:33:31;13.60;;;7.97;;
22543;SDS011;11438;52.044;8.716;2022-12-18T07:35:58;13.57;;;7.17;;
22543;SDS011;11438;52.044;8.716;2022-12-18T07:38:25;11.77;;;7.03;;
22543;SDS011;11438;52.044;8.716;2022-12-18T07:40:50;10.03;;;6.57;;
22543;SDS011;11438;52.044;8.716;2022-12-18T07:43:16;14.27;;;8.07;;
22543;SDS011;11438;52.044;8.716;2022-12-18T07:45:42;12.93;;;7.17;;
22543;SDS011;11438;52.044;8.716;2022-12-18T07:48:07;13.87;;;8.03;;
22543;SDS011;11438;52.044;8.716;2022-12-18T07:50:33;12.00;;;7.60;;
22543;SDS011;11438;52.044;8.716;2022-12-18T07:52:59;16.10;;;9.33;;
22543;SDS011;11438;52.044;8.716;2022-12-18T07:55:28;14.33;;;9.47;;
22543;SDS011;11438;52.044;8.716;2022-12-18T07:57:54;16.70;;;9.20;;
22543;SDS011;11438;52.044;8.716;2022-12-18T08:00:20;15.30;;;9.60;;
22543;SDS011;11438;52.044;8.716;2022-12-18T08:02:46;18.93;;;9.93;;
22543;SDS011;11438;52.044;8.716;2022-12-18T08:05:12;18.17;;;10.23;;
22543;SDS011;11438;52.044;8.716;2022-12-18T08:07:38;15.70;;;9.73;;
22543;SDS011;11438;52.044;8.716;2022-12-18T08:10:04;16.10;;;9.40;;
22543;SDS011;11438;52.044;8.716;2022-12-18T08:12:30;15.17;;;8.47;;
22543;SDS011;11438;52.044;8.716;2022-12-18T08:14:56;15.90;;;8.23;;
22543;SDS011;11438;52.044;8.716;2022-12-18T08:17:21;15.57;;;8.50;;
22543;SDS011;11438;52.044;8.716;2022-12-18T08:19:47;15.17;;;8.13;;
22543;SDS011;11438;52.044;8.716;2022-12-18T08:22:12;13.83;;;8.10;;
22543;SDS011;11438;52.044;8.716;2022-12-18T08:24:38;13.93;;;7.80;;
22543;SDS011;11438;52.044;8.716;2022-12-18T08:27:03;13.17;;;7.00;;
22543;SDS011;11438;52.044;8.716;2022-12-18T08:29:29;11.13;;;7.03;;
22543;SDS011;11438;52.044;8.716;2022-12-18T08:31:55;13.93;;;7.13;;
22543;SDS011;11438;52.044;8.716;2022-12-18T08:34:20;13.80;;;7.30;;
22543;SDS011;11438;52.044;8.716;2022-12-18T08:36:46;14.17;;;7.43;;
22543;SDS011;11438;52.044;8.716;2022-12-18T08:39:12;12.37;;;7.27;;
22543;SDS011;11438;52.044;8.716;2022-12-18T08:41:37;16.37;;;8.13;;
22543;SDS011;11438;52.044;8.716;2022-12-18T08:44:03;13.27;;;7.93;;
22543;SDS011;11438;52.044;8.716;2022-12-18T08:46:47;19.50;;;8.60;;
22543;SDS011;11438;52.044;8.716;2022-12-18T08:49:12;18.77;;;9.67;;
22543;SDS011;11438;52.044;8.716;2022-12-18T08:51:38;20.27;;;9.57;;
22543;SDS011;11438;52.044;8.716;2022-12-18T08:54:04;19.20;;;9.13;;
22543;SDS011;11438;52.044;8.716;2022-12-18T08:56:31;13.13;;;7.83;;
22543;SDS011;11438;52.044;8.716;2022-12-18T08:58:56;11.83;;;7.07;;
22543;SDS011;11438;52.044;8.716;2022-12-18T09:01:22;11.50;;;7.10;;
22543;SDS011;11438;52.044;8.716;2022-12-18T09:03:48;12.20;;;6.97;;
22543;SDS011;11438;52.044;8.716;2022-12-18T09:06:19;9.43;;;6.00;;
22543;SDS011;11438;52.044;8.716;2022-12-18T09:08:45;12.50;;;6.70;;
22543;SDS011;11438;52.044;8.716;2022-12-18T09:11:12;10.70;;;5.80;;
22543;SDS011;11438;52.044;8.716;2022-12-18T09:13:42;10.87;;;6.60;;
22543;SDS011;11438;52.044;8.716;2022-12-18T09:16:08;11.73;;;6.83;;
22543;SDS011;11438;52.044;8.716;2022-12-18T09:18:33;10.93;;;6.77;;
22543;SDS011;11438;52.044;8.716;2022-12-18T09:20:59;10.93;;;6.40;;
22543;SDS011;11438;52.044;8.716;2022-12-18T09:23:24;11.00;;;6.47;;
22543;SDS011;11438;52.044;8.716;2022-12-18T09:25:50;9.97;;;6.10;;
22543;SDS011;11438;52.044;8.716;2022-12-18T09:28:16;10.50;;;6.10;;
22543;SDS011;11438;52.044;8.716;2022-12-18T09:30:44;9.30;;;6.23;;
22543;SDS011;11438;52.044;8.716;2022-12-18T09:33:12;10.00;;;6.23;;
22543;SDS011;11438;52.044;8.716;2022-12-18T09:35:38;10.57;;;5.90;;
22543;SDS011;11438;52.044;8.716;2022-12-18T09:38:06;10.87;;;6.13;;
22543;SDS011;11438;52.044;8.716;2022-12-18T09:40:40;10.43;;;5.83;;
22543;SDS011;11438;52.044;8.716;2022-12-18T09:43:14;12.53;;;6.50;;
22543;SDS011;11438;52.044;8.716;2022-12-18T09:46:01;13.13;;;6.67;;
22543;SDS011;11438;52.044;8.716;2022-12-18T09:48:32;9.47;;;5.83;;
22543;SDS011;11438;52.044;8.716;2022-12-18T09:51:02;9.90;;;5.93;;
22543;SDS011;11438;52.044;8.716;2022-12-18T09:53:34;10.57;;;6.20;;
22543;SDS011;11438;52.044;8.716;2022-12-18T09:56:02;11.13;;;5.93;;
22543;SDS011;11438;52.044;8.716;2022-12-18T09:58:37;9.10;;;6.03;;
22543;SDS011;11438;52.044;8.716;2022-12-18T10:01:12;9.30;;;5.57;;
22543;SDS011;11438;52.044;8.716;2022-12-18T10:03:43;8.97;;;5.13;;
22543;SDS011;11438;52.044;8.716;2022-12-18T10:09:15;10.13;;;6.57;;
22543;SDS011;11438;52.044;8.716;2022-12-18T10:11:49;10.30;;;6.23;;
22543;SDS011;11438;52.044;8.716;2022-12-18T10:20:16;9.90;;;5.57;;
22543;SDS011;11438;52.044;8.716;2022-12-18T10:25:24;10.43;;;5.17;;
22543;SDS011;11438;52.044;8.716;2022-12-18T10:28:20;8.17;;;4.87;;
22543;SDS011;11438;52.044;8.716;2022-12-18T10:30:47;9.70;;;4.67;;
22543;SDS011;11438;52.044;8.716;2022-12-18T10:33:16;7.23;;;4.40;;
22543;SDS011;11438;52.044;8.716;2022-12-18T10:35:43;10.07;;;5.40;;
22543;SDS011;11438;52.044;8.716;2022-12-18T10:40:48;6.87;;;4.00;;
22543;SDS011;11438;52.044;8.716;2022-12-18T10:43:15;6.80;;;3.83;;
22543;SDS011;11438;52.044;8.716;2022-12-18T10:45:57;7.87;;;4.60;;
22543;SDS011;11438;52.044;8.716;2022-12-18T10:48:25;8.77;;;4.93;;
22543;SDS011;11438;52.044;8.716;2022-12-18T10:50:51;7.23;;;4.13;;
22543;SDS011;11438;52.044;8.716;2022-12-18T10:53:21;8.17;;;4.90;;
22543;SDS011;11438;52.044;8.716;2022-12-18T10:55:52;7.20;;;4.60;;
22543;SDS011;11438;52.044;8.716;2022-12-18T11:01:23;8.87;;;4.93;;
22543;SDS011;11438;52.044;8.716;2022-12-18T11:06:23;9.47;;;4.63;;
22543;SDS011;11438;52.044;8.716;2022-12-18T11:09:00;8.07;;;4.00;;
22543;SDS011;11438;52.044;8.716;2022-12-18T11:11:29;7.07;;;4.40;;
22543;SDS011;11438;52.044;8.716;2022-12-18T11:13:58;9.23;;;4.90;;
22543;SDS011;11438;52.044;8.716;2022-12-18T11:16:27;9.03;;;4.67;;
22543;SDS011;11438;52.044;8.716;2022-12-18T11:18:55;9.00;;;4.77;;
22543;SDS011;11438;52.044;8.716;2022-12-18T11:21:40;7.80;;;4.43;;
22543;SDS011;11438;52.044;8.716;2022-12-18T11:24:08;9.47;;;5.43;;
22543;SDS011;11438;52.044;8.716;2022-12-18T11:26:49;9.33;;;5.47;;
22543;SDS011;11438;52.044;8.716;2022-12-18T11:29:16;9.70;;;5.60;;
22543;SDS011;11438;52.044;8.716;2022-12-18T11:31:43;8.90;;;4.73;;
22543;SDS011;11438;52.044;8.716;2022-12-18T11:36:43;7.27;;;4.80;;
22543;SDS011;11438;52.044;8.716;2022-12-18T11:42:05;8.17;;;4.57;;
22543;SDS011;11438;52.044;8.716;2022-12-18T11:44:50;8.70;;;4.63;;
22543;SDS011;11438;52.044;8.716;2022-12-18T11:50:12;6.67;;;4.23;;
22543;SDS011;11438;52.044;8.716;2022-12-18T11:52:43;7.90;;;5.23;;
22543;SDS011;11438;52.044;8.716;2022-12-18T11:55:13;11.73;;;5.93;;
22543;SDS011;11438;52.044;8.716;2022-12-18T12:00:26;8.73;;;4.70;;
22543;SDS011;11438;52.044;8.716;2022-12-18T12:05:48;8.77;;;5.43;;
22543;SDS011;11438;52.044;8.716;2022-12-18T12:22:13;8.87;;;5.00;;
22543;SDS011;11438;52.044;8.716;2022-12-18T12:24:52;8.57;;;4.63;;
22543;SDS011;11438;52.044;8.716;2022-12-18T12:30:56;9.30;;;4.83;;
22543;SDS011;11438;52.044;8.716;2022-12-18T12:35:52;9.37;;;5.40;;
22543;SDS011;11438;52.044;8.716;2022-12-18T12:40:59;9.10;;;5.17;;
22543;SDS011;11438;52.044;8.716;2022-12-18T12:43:42;9.33;;;5.37;;
22543;SDS011;11438;52.044;8.716;2022-12-18T12:46:12;10.57;;;5.53;;
22543;SDS011;11438;52.044;8.716;2022-12-18T12:51:38;7.77;;;4.80;;
22543;SDS011;11438;52.044;8.716;2022-12-18T12:54:12;8.10;;;5.53;;
22543;SDS011;11438;52.044;8.716;2022-12-18T12:56:43;7.83;;;5.13;;
22543;SDS011;11438;52.044;8.716;2022-12-18T12:59:52;11.77;;;5.50;;
22543;SDS011;11438;52.044;8.716;2022-12-18T13:02:31;8.03;;;4.80;;
22543;SDS011;11438;52.044;8.716;2022-12-18T13:08:04;9.63;;;5.23;;
22543;SDS011;11438;52.044;8.716;2022-12-18T13:10:39;11.60;;;6.10;;
22543;SDS011;11438;52.044;8.716;2022-12-18T13:13:10;9.13;;;5.30;;
22543;SDS011;11438;52.044;8.716;2022-12-18T13:15:44;11.00;;;5.53;;
22543;SDS011;11438;52.044;8.716;2022-12-18T13:18:27;9.20;;;5.90;;
22543;SDS011;11438;52.044;8.716;2022-12-18T13:25:48;7.93;;;4.60;;
22543;SDS011;11438;52.044;8.716;2022-12-18T13:32:01;7.23;;;4.70;;
22543;SDS011;11438;52.044;8.716;2022-12-18T13:34:16;8.07;;;4.93;;
22543;SDS011;11438;52.044;8.716;2022-12-18T13:36:45;8.73;;;4.63;;
22543;SDS011;11438;52.044;8.716;2022-12-18T13:41:44;7.57;;;4.80;;
22543;SDS011;11438;52.044;8.716;2022-12-18T13:44:12;9.60;;;5.20;;
22543;SDS011;11438;52.044;8.716;2022-12-18T13:46:47;7.23;;;4.87;;
22543;SDS011;11438;52.044;8.716;2022-12-18T13:51:52;8.33;;;4.33;;
22543;SDS011;11438;52.044;8.716;2022-12-18T13:57:31;8.10;;;5.10;;
22543;SDS011;11438;52.044;8.716;2022-12-18T14:00:23;8.70;;;4.97;;
22543;SDS011;11438;52.044;8.716;2022-12-18T14:02:49;6.43;;;4.07;;
22543;SDS011;11438;52.044;8.716;2022-12-18T14:05:22;8.63;;;4.77;;
22543;SDS011;11438;52.044;8.716;2022-12-18T14:08:05;7.97;;;4.77;;
22543;SDS011;11438;52.044;8.716;2022-12-18T14:10:42;9.70;;;5.17;;
22543;SDS011;11438;52.044;8.716;2022-12-18T14:13:11;7.77;;;4.17;;
22543;SDS011;11438;52.044;8.716;2022-12-18T14:15:45;8.23;;;5.23;;
22543;SDS011;11438;52.044;8.716;2022-12-18T14:20:55;10.33;;;4.77;;
22543;SDS011;11438;52.044;8.716;2022-12-18T14:23:45;7.27;;;4.33;;
22543;SDS011;11438;52.044;8.716;2022-12-18T14:28:45;7.43;;;4.43;;
22543;SDS011;11438;52.044;8.716;2022-12-18T14:31:20;7.67;;;4.67;;
22543;SDS011;11438;52.044;8.716;2022-12-18T14:33:47;8.10;;;4.37;;
22543;SDS011;11438;52.044;8.716;2022-12-18T14:36:18;10.43;;;4.17;;
22543;SDS011;11438;52.044;8.716;2022-12-18T14:38:49;7.30;;;4.53;;
22543;SDS011;11438;52.044;8.716;2022-12-18T14:41:20;10.10;;;4.87;;
22543;SDS011;11438;52.044;8.716;2022-12-18T14:43:47;8.33;;;4.80;;
22543;SDS011;11438;52.044;8.716;2022-12-18T14:52:01;8.33;;;4.70;;
22543;SDS011;11438;52.044;8.716;2022-12-18T14:54:29;9.17;;;5.13;;
22543;SDS011;11438;52.044;8.716;2022-12-18T14:57:06;9.07;;;5.20;;
22543;SDS011;11438;52.044;8.716;2022-12-18T14:59:51;8.70;;;4.83;;
22543;SDS011;11438;52.044;8.716;2022-12-18T15:04:59;9.13;;;4.83;;
22543;SDS011;11438;52.044;8.716;2022-12-18T15:07:26;7.77;;;4.17;;
22543;SDS011;11438;52.044;8.716;2022-12-18T15:10:10;8.80;;;4.47;;
22543;SDS011;11438;52.044;8.716;2022-12-18T15:12:41;7.17;;;4.43;;
22543;SDS011;11438;52.044;8.716;2022-12-18T15:20:40;8.23;;;5.07;;
22543;SDS011;11438;52.044;8.716;2022-12-18T15:23:14;7.40;;;4.80;;
22543;SDS011;11438;52.044;8.716;2022-12-18T15:25:40;7.40;;;4.20;;
22543;SDS011;11438;52.044;8.716;2022-12-18T15:33:39;9.13;;;4.83;;
22543;SDS011;11438;52.044;8.716;2022-12-18T15:36:14;9.67;;;5.37;;
22543;SDS011;11438;52.044;8.716;2022-12-18T15:38:43;9.47;;;5.40;;
22543;SDS011;11438;52.044;8.716;2022-12-18T15:41:15;9.23;;;5.50;;
22543;SDS011;11438;52.044;8.716;2022-12-18T15:43:42;8.30;;;5.70;;
22543;SDS011;11438;52.044;8.716;2022-12-18T15:48:41;9.67;;;5.93;;
22543;SDS011;11438;52.044;8.716;2022-12-18T15:54:03;10.43;;;5.80;;
22543;SDS011;11438;52.044;8.716;2022-12-18T15:56:30;7.67;;;4.80;;
22543;SDS011;11438;52.044;8.716;2022-12-18T15:59:19;8.73;;;5.13;;
22543;SDS011;11438;52.044;8.716;2022-12-18T16:01:46;11.80;;;6.00;;
22543;SDS011;11438;52.044;8.716;2022-12-18T16:04:14;11.47;;;4.97;;
22543;SDS011;11438;52.044;8.716;2022-12-18T16:06:42;11.63;;;5.93;;
22543;SDS011;11438;52.044;8.716;2022-12-18T16:09:08;8.93;;;5.17;;
22543;SDS011;11438;52.044;8.716;2022-12-18T16:11:34;9.10;;;5.40;;
22543;SDS011;11438;52.044;8.716;2022-12-18T16:16:48;8.23;;;4.97;;
22543;SDS011;11438;52.044;8.716;2022-12-18T16:19:15;9.87;;;5.63;;
22543;SDS011;11438;52.044;8.716;2022-12-18T16:21:41;10.50;;;6.47;;
22543;SDS011;11438;52.044;8.716;2022-12-18T16:24:11;14.20;;;8.60;;
22543;SDS011;11438;52.044;8.716;2022-12-18T16:26:48;11.07;;;6.50;;
22543;SDS011;11438;52.044;8.716;2022-12-18T16:29:16;12.10;;;6.70;;
22543;SDS011;11438;52.044;8.716;2022-12-18T16:31:42;9.67;;;5.90;;
22543;SDS011;11438;52.044;8.716;2022-12-18T16:36:39;12.63;;;6.40;;
22543;SDS011;11438;52.044;8.716;2022-12-18T16:39:05;14.57;;;6.37;;
22543;SDS011;11438;52.044;8.716;2022-12-18T16:41:30;12.83;;;6.57;;
22543;SDS011;11438;52.044;8.716;2022-12-18T16:43:56;13.90;;;7.33;;
22543;SDS011;11438;52.044;8.716;2022-12-18T16:46:22;12.20;;;7.07;;
22543;SDS011;11438;52.044;8.716;2022-12-18T16:48:48;10.87;;;6.23;;
22543;SDS011;11438;52.044;8.716;2022-12-18T16:51:14;10.63;;;6.17;;
22543;SDS011;11438;52.044;8.716;2022-12-18T16:53:39;9.20;;;6.20;;
22543;SDS011;11438;52.044;8.716;2022-12-18T16:56:05;13.40;;;7.27;;
22543;SDS011;11438;52.044;8.716;2022-12-18T16:58:31;12.53;;;7.30;;
22543;SDS011;11438;52.044;8.716;2022-12-18T17:00:56;10.97;;;6.43;;
22543;SDS011;11438;52.044;8.716;2022-12-18T17:03:22;11.23;;;7.43;;
22543;SDS011;11438;52.044;8.716;2022-12-18T17:05:47;13.60;;;6.90;;
22543;SDS011;11438;52.044;8.716;2022-12-18T17:08:13;11.53;;;7.30;;
22543;SDS011;11438;52.044;8.716;2022-12-18T17:10:38;11.03;;;6.73;;
22543;SDS011;11438;52.044;8.716;2022-12-18T17:13:04;11.73;;;6.87;;
22543;SDS011;11438;52.044;8.716;2022-12-18T17:15:29;12.47;;;7.17;;
22543;SDS011;11438;52.044;8.716;2022-12-18T17:17:58;12.23;;;6.57;;